sensor_id;sensor_type;location;lat;lon;timestamp;P1;durP1;ratioP1;P2;durP2;ratioP2
32625;SDS011;19038;50.922;11.880;2022-09-01T00:00:13;3.60;;;3.30;;
32625;SDS011;19038;50.922;11.880;2022-09-01T00:05:13;3.50;;;3.20;;
32625;SDS011;19038;50.922;11.880;2022-09-01T00:10:13;4.10;;;3.73;;
32625;SDS011;19038;50.922;11.880;2022-09-01T00:15:13;4.10;;;3.70;;
32625;SDS011;19038;50.922;11.880;2022-09-01T00:20:13;3.20;;;2.97;;
32625;SDS011;19038;50.922;11.880;2022-09-01T00:25:13;3.30;;;3.00;;
32625;SDS011;19038;50.922;11.880;2022-09-01T00:30:13;2.73;;;2.53;;
32625;SDS011;19038;50.922;11.880;2022-09-01T00:35:14;3.00;;;2.80;;
32625;SDS011;19038;50.922;11.880;2022-09-01T00:40:13;2.60;;;2.40;;
32625;SDS011;19038;50.922;11.880;2022-09-01T00:45:13;2.50;;;2.30;;
32625;SDS011;19038;50.922;11.880;2022-09-01T00:50:14;4.17;;;3.00;;
32625;SDS011;19038;50.922;11.880;2022-09-01T00:55:17;2.50;;;2.30;;
32625;SDS011;19038;50.922;11.880;2022-09-01T01:00:15;2.70;;;2.40;;
32625;SDS011;19038;50.922;11.880;2022-09-01T01:05:14;4.23;;;2.40;;
32625;SDS011;19038;50.922;11.880;2022-09-01T01:10:13;3.03;;;2.77;;
32625;SDS011;19038;50.922;11.880;2022-09-01T01:15:13;2.73;;;2.50;;
32625;SDS011;19038;50.922;11.880;2022-09-01T01:20:13;3.53;;;2.50;;
32625;SDS011;19038;50.922;11.880;2022-09-01T01:25:13;2.97;;;2.73;;
32625;SDS011;19038;50.922;11.880;2022-09-01T01:30:14;4.77;;;3.87;;
32625;SDS011;19038;50.922;11.880;2022-09-01T01:35:14;5.07;;;4.30;;
32625;SDS011;19038;50.922;11.880;2022-09-01T01:40:14;4.07;;;3.33;;
32625;SDS011;19038;50.922;11.880;2022-09-01T01:45:14;3.63;;;3.33;;
32625;SDS011;19038;50.922;11.880;2022-09-01T01:50:13;5.17;;;4.30;;
32625;SDS011;19038;50.922;11.880;2022-09-01T01:55:13;3.70;;;3.40;;
32625;SDS011;19038;50.922;11.880;2022-09-01T02:00:13;4.80;;;3.13;;
32625;SDS011;19038;50.922;11.880;2022-09-01T02:05:13;3.20;;;2.90;;
32625;SDS011;19038;50.922;11.880;2022-09-01T02:10:13;4.97;;;4.47;;
32625;SDS011;19038;50.922;11.880;2022-09-01T02:15:13;3.70;;;3.23;;
32625;SDS011;19038;50.922;11.880;2022-09-01T02:20:13;4.50;;;3.10;;
32625;SDS011;19038;50.922;11.880;2022-09-01T02:25:13;2.83;;;2.63;;
32625;SDS011;19038;50.922;11.880;2022-09-01T02:30:13;2.70;;;2.50;;
32625;SDS011;19038;50.922;11.880;2022-09-01T02:35:13;3.27;;;2.80;;
32625;SDS011;19038;50.922;11.880;2022-09-01T02:40:13;4.00;;;2.90;;
32625;SDS011;19038;50.922;11.880;2022-09-01T02:45:13;4.10;;;3.30;;
32625;SDS011;19038;50.922;11.880;2022-09-01T02:50:13;2.90;;;2.60;;
32625;SDS011;19038;50.922;11.880;2022-09-01T02:55:14;3.13;;;2.83;;
32625;SDS011;19038;50.922;11.880;2022-09-01T03:00:14;3.53;;;2.70;;
32625;SDS011;19038;50.922;11.880;2022-09-01T03:05:13;3.37;;;2.87;;
32625;SDS011;19038;50.922;11.880;2022-09-01T03:10:13;3.43;;;3.13;;
32625;SDS011;19038;50.922;11.880;2022-09-01T03:15:13;2.97;;;2.77;;
32625;SDS011;19038;50.922;11.880;2022-09-01T03:20:13;3.90;;;3.50;;
32625;SDS011;19038;50.922;11.880;2022-09-01T03:25:13;4.67;;;3.60;;
32625;SDS011;19038;50.922;11.880;2022-09-01T03:30:13;3.77;;;3.47;;
32625;SDS011;19038;50.922;11.880;2022-09-01T03:35:13;3.93;;;3.60;;
32625;SDS011;19038;50.922;11.880;2022-09-01T03:40:13;3.40;;;2.90;;
32625;SDS011;19038;50.922;11.880;2022-09-01T03:45:13;3.47;;;3.03;;
32625;SDS011;19038;50.922;11.880;2022-09-01T03:50:14;3.47;;;3.20;;
32625;SDS011;19038;50.922;11.880;2022-09-01T03:55:14;3.17;;;2.97;;
32625;SDS011;19038;50.922;11.880;2022-09-01T04:00:13;3.17;;;2.80;;
32625;SDS011;19038;50.922;11.880;2022-09-01T04:05:13;4.50;;;2.83;;
32625;SDS011;19038;50.922;11.880;2022-09-01T04:10:13;4.37;;;2.90;;
32625;SDS011;19038;50.922;11.880;2022-09-01T04:15:13;4.23;;;3.03;;
32625;SDS011;19038;50.922;11.880;2022-09-01T04:20:13;3.87;;;3.33;;
32625;SDS011;19038;50.922;11.880;2022-09-01T04:25:13;3.20;;;3.00;;
32625;SDS011;19038;50.922;11.880;2022-09-01T04:30:13;3.07;;;2.80;;
32625;SDS011;19038;50.922;11.880;2022-09-01T04:35:13;3.20;;;2.90;;
32625;SDS011;19038;50.922;11.880;2022-09-01T04:40:13;6.73;;;6.03;;
32625;SDS011;19038;50.922;11.880;2022-09-01T04:45:13;13.40;;;8.80;;
32625;SDS011;19038;50.922;11.880;2022-09-01T04:50:13;5.23;;;4.73;;
32625;SDS011;19038;50.922;11.880;2022-09-01T04:55:13;3.03;;;2.83;;
32625;SDS011;19038;50.922;11.880;2022-09-01T05:00:14;5.57;;;2.90;;
32625;SDS011;19038;50.922;11.880;2022-09-01T05:05:13;3.90;;;2.93;;
32625;SDS011;19038;50.922;11.880;2022-09-01T05:10:13;2.97;;;2.73;;
32625;SDS011;19038;50.922;11.880;2022-09-01T05:15:14;3.33;;;2.90;;
32625;SDS011;19038;50.922;11.880;2022-09-01T05:20:13;3.43;;;3.13;;
32625;SDS011;19038;50.922;11.880;2022-09-01T05:25:13;3.40;;;3.10;;
32625;SDS011;19038;50.922;11.880;2022-09-01T05:30:13;3.47;;;3.17;;
32625;SDS011;19038;50.922;11.880;2022-09-01T05:35:13;6.83;;;2.97;;
32625;SDS011;19038;50.922;11.880;2022-09-01T05:40:13;3.20;;;2.90;;
32625;SDS011;19038;50.922;11.880;2022-09-01T05:45:13;3.53;;;3.10;;
32625;SDS011;19038;50.922;11.880;2022-09-01T05:50:13;2.93;;;2.73;;
32625;SDS011;19038;50.922;11.880;2022-09-01T05:55:13;3.40;;;3.20;;
32625;SDS011;19038;50.922;11.880;2022-09-01T06:00:13;3.60;;;3.30;;
32625;SDS011;19038;50.922;11.880;2022-09-01T06:05:13;3.37;;;3.07;;
32625;SDS011;19038;50.922;11.880;2022-09-01T06:10:13;3.70;;;3.40;;
32625;SDS011;19038;50.922;11.880;2022-09-01T06:15:13;3.37;;;3.10;;
32625;SDS011;19038;50.922;11.880;2022-09-01T06:20:13;4.10;;;3.70;;
32625;SDS011;19038;50.922;11.880;2022-09-01T06:25:14;4.30;;;3.90;;
32625;SDS011;19038;50.922;11.880;2022-09-01T06:30:14;3.80;;;3.50;;
32625;SDS011;19038;50.922;11.880;2022-09-01T06:35:13;4.00;;;3.70;;
32625;SDS011;19038;50.922;11.880;2022-09-01T06:40:14;4.40;;;4.03;;
32625;SDS011;19038;50.922;11.880;2022-09-01T06:45:14;4.67;;;4.03;;
32625;SDS011;19038;50.922;11.880;2022-09-01T06:50:14;4.67;;;3.27;;
32625;SDS011;19038;50.922;11.880;2022-09-01T06:55:13;4.63;;;4.10;;
32625;SDS011;19038;50.922;11.880;2022-09-01T07:00:13;5.30;;;4.90;;
32625;SDS011;19038;50.922;11.880;2022-09-01T07:05:14;5.17;;;4.77;;
32625;SDS011;19038;50.922;11.880;2022-09-01T07:10:13;6.40;;;5.90;;
32625;SDS011;19038;50.922;11.880;2022-09-01T07:15:13;5.77;;;5.37;;
32625;SDS011;19038;50.922;11.880;2022-09-01T07:20:13;5.20;;;4.70;;
32625;SDS011;19038;50.922;11.880;2022-09-01T07:25:13;5.50;;;5.00;;
32625;SDS011;19038;50.922;11.880;2022-09-01T07:30:13;4.90;;;4.50;;
32625;SDS011;19038;50.922;11.880;2022-09-01T07:35:14;4.90;;;4.50;;
32625;SDS011;19038;50.922;11.880;2022-09-01T07:40:14;4.47;;;4.00;;
32625;SDS011;19038;50.922;11.880;2022-09-01T07:45:14;5.03;;;3.70;;
32625;SDS011;19038;50.922;11.880;2022-09-01T07:50:13;5.13;;;3.63;;
32625;SDS011;19038;50.922;11.880;2022-09-01T07:55:14;3.80;;;3.50;;
32625;SDS011;19038;50.922;11.880;2022-09-01T08:00:13;4.03;;;3.60;;
32625;SDS011;19038;50.922;11.880;2022-09-01T08:05:14;4.00;;;3.70;;
32625;SDS011;19038;50.922;11.880;2022-09-01T08:10:13;3.80;;;3.60;;
32625;SDS011;19038;50.922;11.880;2022-09-01T08:15:13;3.77;;;3.47;;
32625;SDS011;19038;50.922;11.880;2022-09-01T08:20:13;4.37;;;3.50;;
32625;SDS011;19038;50.922;11.880;2022-09-01T08:25:13;7.30;;;4.37;;
32625;SDS011;19038;50.922;11.880;2022-09-01T08:30:13;4.13;;;3.10;;
32625;SDS011;19038;50.922;11.880;2022-09-01T08:35:13;4.73;;;3.53;;
32625;SDS011;19038;50.922;11.880;2022-09-01T08:40:14;4.50;;;3.27;;
32625;SDS011;19038;50.922;11.880;2022-09-01T08:45:19;3.80;;;3.50;;
32625;SDS011;19038;50.922;11.880;2022-09-01T08:50:13;6.20;;;3.50;;
32625;SDS011;19038;50.922;11.880;2022-09-01T08:55:17;4.00;;;2.80;;
32625;SDS011;19038;50.922;11.880;2022-09-01T09:00:14;4.60;;;3.90;;
32625;SDS011;19038;50.922;11.880;2022-09-01T09:10:16;6.07;;;3.20;;
32625;SDS011;19038;50.922;11.880;2022-09-01T09:20:13;4.03;;;3.10;;
32625;SDS011;19038;50.922;11.880;2022-09-01T09:25:15;5.33;;;3.07;;
32625;SDS011;19038;50.922;11.880;2022-09-01T09:40:15;8.03;;;3.20;;
32625;SDS011;19038;50.922;11.880;2022-09-01T09:45:20;5.33;;;3.80;;
32625;SDS011;19038;50.922;11.880;2022-09-01T09:50:16;5.87;;;3.20;;
32625;SDS011;19038;50.922;11.880;2022-09-01T10:15:13;3.90;;;2.53;;
32625;SDS011;19038;50.922;11.880;2022-09-01T10:20:15;2.80;;;2.40;;
32625;SDS011;19038;50.922;11.880;2022-09-01T10:30:14;4.33;;;2.40;;
32625;SDS011;19038;50.922;11.880;2022-09-01T10:35:15;3.20;;;2.50;;
32625;SDS011;19038;50.922;11.880;2022-09-01T10:45:15;2.50;;;1.97;;
32625;SDS011;19038;50.922;11.880;2022-09-01T11:05:14;7.73;;;2.90;;
32625;SDS011;19038;50.922;11.880;2022-09-01T11:30:17;5.53;;;2.20;;
32625;SDS011;19038;50.922;11.880;2022-09-01T11:35:15;3.93;;;2.07;;
32625;SDS011;19038;50.922;11.880;2022-09-01T11:40:17;2.70;;;1.63;;
32625;SDS011;19038;50.922;11.880;2022-09-01T11:45:17;2.53;;;1.50;;
32625;SDS011;19038;50.922;11.880;2022-09-01T11:50:17;1.80;;;1.50;;
32625;SDS011;19038;50.922;11.880;2022-09-01T11:55:13;7.43;;;1.90;;
32625;SDS011;19038;50.922;11.880;2022-09-01T12:00:16;7.17;;;2.67;;
32625;SDS011;19038;50.922;11.880;2022-09-01T12:10:16;2.70;;;2.27;;
32625;SDS011;19038;50.922;11.880;2022-09-01T12:15:17;2.07;;;1.70;;
32625;SDS011;19038;50.922;11.880;2022-09-01T12:20:18;1.63;;;1.40;;
32625;SDS011;19038;50.922;11.880;2022-09-01T12:25:18;1.83;;;1.50;;
32625;SDS011;19038;50.922;11.880;2022-09-01T12:30:14;2.63;;;1.60;;
32625;SDS011;19038;50.922;11.880;2022-09-01T12:35:18;1.37;;;0.97;;
32625;SDS011;19038;50.922;11.880;2022-09-01T12:45:14;2.70;;;1.40;;
32625;SDS011;19038;50.922;11.880;2022-09-01T12:55:15;1.40;;;1.10;;
32625;SDS011;19038;50.922;11.880;2022-09-01T13:00:16;1.40;;;1.27;;
32625;SDS011;19038;50.922;11.880;2022-09-01T13:10:14;2.90;;;1.37;;
32625;SDS011;19038;50.922;11.880;2022-09-01T13:15:14;1.47;;;1.00;;
32625;SDS011;19038;50.922;11.880;2022-09-01T13:20:14;1.33;;;1.00;;
32625;SDS011;19038;50.922;11.880;2022-09-01T13:25:15;1.33;;;1.17;;
32625;SDS011;19038;50.922;11.880;2022-09-01T13:30:14;1.67;;;1.27;;
32625;SDS011;19038;50.922;11.880;2022-09-01T13:35:15;1.20;;;1.00;;
32625;SDS011;19038;50.922;11.880;2022-09-01T13:40:15;3.03;;;1.10;;
32625;SDS011;19038;50.922;11.880;2022-09-01T13:45:14;1.27;;;1.17;;
32625;SDS011;19038;50.922;11.880;2022-09-01T13:50:15;3.63;;;1.47;;
32625;SDS011;19038;50.922;11.880;2022-09-01T13:55:15;1.20;;;1.10;;
32625;SDS011;19038;50.922;11.880;2022-09-01T14:00:15;1.30;;;0.90;;
32625;SDS011;19038;50.922;11.880;2022-09-01T14:05:15;2.67;;;1.17;;
32625;SDS011;19038;50.922;11.880;2022-09-01T14:10:14;1.70;;;1.27;;
32625;SDS011;19038;50.922;11.880;2022-09-01T14:15:14;1.20;;;0.93;;
32625;SDS011;19038;50.922;11.880;2022-09-01T14:20:16;1.57;;;1.47;;
32625;SDS011;19038;50.922;11.880;2022-09-01T14:25:14;1.67;;;1.07;;
32625;SDS011;19038;50.922;11.880;2022-09-01T14:30:16;1.10;;;1.00;;
32625;SDS011;19038;50.922;11.880;2022-09-01T14:35:14;1.37;;;1.03;;
32625;SDS011;19038;50.922;11.880;2022-09-01T14:40:14;1.90;;;1.23;;
32625;SDS011;19038;50.922;11.880;2022-09-01T14:45:15;1.10;;;1.00;;
32625;SDS011;19038;50.922;11.880;2022-09-01T14:50:14;1.83;;;1.53;;
32625;SDS011;19038;50.922;11.880;2022-09-01T14:55:14;2.93;;;2.73;;
32625;SDS011;19038;50.922;11.880;2022-09-01T15:00:14;1.30;;;1.10;;
32625;SDS011;19038;50.922;11.880;2022-09-01T15:05:14;8.00;;;7.20;;
32625;SDS011;19038;50.922;11.880;2022-09-01T15:10:14;3.20;;;2.90;;
32625;SDS011;19038;50.922;11.880;2022-09-01T15:15:14;2.90;;;1.60;;
32625;SDS011;19038;50.922;11.880;2022-09-01T15:20:14;2.10;;;1.17;;
32625;SDS011;19038;50.922;11.880;2022-09-01T15:25:14;1.53;;;1.07;;
32625;SDS011;19038;50.922;11.880;2022-09-01T15:30:14;1.80;;;1.00;;
32625;SDS011;19038;50.922;11.880;2022-09-01T15:35:14;1.17;;;1.07;;
32625;SDS011;19038;50.922;11.880;2022-09-01T15:40:14;1.33;;;1.10;;
32625;SDS011;19038;50.922;11.880;2022-09-01T15:45:15;1.70;;;1.20;;
32625;SDS011;19038;50.922;11.880;2022-09-01T15:50:15;1.50;;;1.40;;
32625;SDS011;19038;50.922;11.880;2022-09-01T15:55:15;2.37;;;1.60;;
32625;SDS011;19038;50.922;11.880;2022-09-01T16:00:14;2.30;;;1.57;;
32625;SDS011;19038;50.922;11.880;2022-09-01T16:05:14;1.53;;;1.23;;
32625;SDS011;19038;50.922;11.880;2022-09-01T16:10:14;2.17;;;1.70;;
32625;SDS011;19038;50.922;11.880;2022-09-01T16:15:14;1.80;;;1.53;;
32625;SDS011;19038;50.922;11.880;2022-09-01T16:25:17;2.30;;;2.10;;
32625;SDS011;19038;50.922;11.880;2022-09-01T16:30:17;1.73;;;1.20;;
32625;SDS011;19038;50.922;11.880;2022-09-01T16:35:14;1.37;;;1.17;;
32625;SDS011;19038;50.922;11.880;2022-09-01T16:40:18;1.33;;;1.17;;
32625;SDS011;19038;50.922;11.880;2022-09-01T16:45:19;2.70;;;2.30;;
32625;SDS011;19038;50.922;11.880;2022-09-01T16:55:17;1.57;;;1.40;;
32625;SDS011;19038;50.922;11.880;2022-09-01T17:00:14;2.23;;;1.40;;
32625;SDS011;19038;50.922;11.880;2022-09-01T17:05:18;1.80;;;1.30;;
32625;SDS011;19038;50.922;11.880;2022-09-01T17:10:20;1.13;;;1.03;;
32625;SDS011;19038;50.922;11.880;2022-09-01T17:15:16;1.20;;;1.10;;
32625;SDS011;19038;50.922;11.880;2022-09-01T17:20:14;2.20;;;1.00;;
32625;SDS011;19038;50.922;11.880;2022-09-01T17:25:22;1.30;;;1.20;;
32625;SDS011;19038;50.922;11.880;2022-09-01T17:30:14;4.13;;;1.30;;
32625;SDS011;19038;50.922;11.880;2022-09-01T17:50:17;3.20;;;1.50;;
32625;SDS011;19038;50.922;11.880;2022-09-01T17:55:19;2.50;;;1.50;;
32625;SDS011;19038;50.922;11.880;2022-09-01T18:05:15;1.93;;;1.70;;
32625;SDS011;19038;50.922;11.880;2022-09-01T18:10:16;1.90;;;1.63;;
32625;SDS011;19038;50.922;11.880;2022-09-01T18:15:16;2.50;;;1.77;;
32625;SDS011;19038;50.922;11.880;2022-09-01T18:25:17;6.40;;;4.60;;
32625;SDS011;19038;50.922;11.880;2022-09-01T18:30:15;4.33;;;3.00;;
32625;SDS011;19038;50.922;11.880;2022-09-01T18:35:18;3.70;;;2.17;;
32625;SDS011;19038;50.922;11.880;2022-09-01T18:40:18;2.20;;;1.80;;
32625;SDS011;19038;50.922;11.880;2022-09-01T18:50:19;3.63;;;2.00;;
32625;SDS011;19038;50.922;11.880;2022-09-01T19:00:17;5.17;;;1.93;;
32625;SDS011;19038;50.922;11.880;2022-09-01T19:05:20;3.43;;;1.80;;
32625;SDS011;19038;50.922;11.880;2022-09-01T19:10:15;8.43;;;2.10;;
32625;SDS011;19038;50.922;11.880;2022-09-01T19:20:16;4.77;;;2.10;;
32625;SDS011;19038;50.922;11.880;2022-09-01T19:25:15;5.67;;;2.23;;
32625;SDS011;19038;50.922;11.880;2022-09-01T19:30:14;3.00;;;2.53;;
32625;SDS011;19038;50.922;11.880;2022-09-01T19:35:14;4.37;;;3.17;;
32625;SDS011;19038;50.922;11.880;2022-09-01T19:40:14;2.90;;;2.30;;
32625;SDS011;19038;50.922;11.880;2022-09-01T19:45:16;3.03;;;2.40;;
32625;SDS011;19038;50.922;11.880;2022-09-01T19:50:15;4.67;;;2.53;;
32625;SDS011;19038;50.922;11.880;2022-09-01T19:55:19;6.40;;;2.03;;
32625;SDS011;19038;50.922;11.880;2022-09-01T20:00:19;2.13;;;1.90;;
32625;SDS011;19038;50.922;11.880;2022-09-01T20:10:21;2.40;;;2.10;;
32625;SDS011;19038;50.922;11.880;2022-09-01T20:15:18;5.30;;;3.67;;
32625;SDS011;19038;50.922;11.880;2022-09-01T20:20:15;4.50;;;3.80;;
32625;SDS011;19038;50.922;11.880;2022-09-01T20:25:19;3.40;;;3.07;;
32625;SDS011;19038;50.922;11.880;2022-09-01T20:30:17;4.30;;;3.43;;
32625;SDS011;19038;50.922;11.880;2022-09-01T20:35:17;3.10;;;2.70;;
32625;SDS011;19038;50.922;11.880;2022-09-01T20:40:16;2.93;;;2.60;;
32625;SDS011;19038;50.922;11.880;2022-09-01T20:45:17;2.70;;;2.40;;
32625;SDS011;19038;50.922;11.880;2022-09-01T20:50:14;3.43;;;2.57;;
32625;SDS011;19038;50.922;11.880;2022-09-01T20:55:15;2.60;;;2.40;;
32625;SDS011;19038;50.922;11.880;2022-09-01T21:00:17;4.87;;;3.40;;
32625;SDS011;19038;50.922;11.880;2022-09-01T21:05:18;4.90;;;4.40;;
32625;SDS011;19038;50.922;11.880;2022-09-01T21:25:14;3.90;;;3.60;;
32625;SDS011;19038;50.922;11.880;2022-09-01T21:30:14;4.40;;;3.87;;
32625;SDS011;19038;50.922;11.880;2022-09-01T21:35:16;4.70;;;3.33;;
32625;SDS011;19038;50.922;11.880;2022-09-01T21:40:15;3.97;;;3.63;;
32625;SDS011;19038;50.922;11.880;2022-09-01T21:45:14;4.10;;;3.80;;
32625;SDS011;19038;50.922;11.880;2022-09-01T21:50:15;3.83;;;3.43;;
32625;SDS011;19038;50.922;11.880;2022-09-01T21:55:15;4.23;;;3.27;;
32625;SDS011;19038;50.922;11.880;2022-09-01T22:00:15;3.20;;;2.93;;
32625;SDS011;19038;50.922;11.880;2022-09-01T22:05:14;3.63;;;3.23;;
32625;SDS011;19038;50.922;11.880;2022-09-01T22:10:16;3.17;;;2.97;;
32625;SDS011;19038;50.922;11.880;2022-09-01T22:15:16;3.17;;;2.97;;
32625;SDS011;19038;50.922;11.880;2022-09-01T22:20:15;3.53;;;3.13;;
32625;SDS011;19038;50.922;11.880;2022-09-01T22:25:15;4.00;;;3.40;;
32625;SDS011;19038;50.922;11.880;2022-09-01T22:30:14;2.70;;;2.50;;
32625;SDS011;19038;50.922;11.880;2022-09-01T22:35:14;3.40;;;3.20;;
32625;SDS011;19038;50.922;11.880;2022-09-01T22:40:14;3.80;;;3.10;;
32625;SDS011;19038;50.922;11.880;2022-09-01T22:45:15;3.13;;;2.93;;
32625;SDS011;19038;50.922;11.880;2022-09-01T22:50:14;3.33;;;3.13;;
32625;SDS011;19038;50.922;11.880;2022-09-01T22:55:14;3.70;;;3.37;;
32625;SDS011;19038;50.922;11.880;2022-09-01T23:00:14;3.40;;;3.10;;
32625;SDS011;19038;50.922;11.880;2022-09-01T23:05:14;4.30;;;3.47;;
32625;SDS011;19038;50.922;11.880;2022-09-01T23:10:14;4.63;;;3.80;;
32625;SDS011;19038;50.922;11.880;2022-09-01T23:15:14;4.10;;;3.70;;
32625;SDS011;19038;50.922;11.880;2022-09-01T23:20:14;3.63;;;3.33;;
32625;SDS011;19038;50.922;11.880;2022-09-01T23:25:14;3.40;;;3.10;;
32625;SDS011;19038;50.922;11.880;2022-09-01T23:30:14;4.37;;;3.20;;
32625;SDS011;19038;50.922;11.880;2022-09-01T23:35:14;4.43;;;3.87;;
32625;SDS011;19038;50.922;11.880;2022-09-01T23:40:14;4.43;;;3.83;;
32625;SDS011;19038;50.922;11.880;2022-09-01T23:45:14;3.33;;;3.03;;
32625;SDS011;19038;50.922;11.880;2022-09-01T23:50:14;5.00;;;3.80;;
32625;SDS011;19038;50.922;11.880;2022-09-01T23:55:14;4.10;;;3.20;;
